Terminal Aerodrome Forecast
Issued by NWS

Home | Current Version | Previous Version | Text Only | Print | Product List | Glossary On
Versions: 1 2 3 4 5 6 7 8 9 10 11 12 13 14 15 16 17
000
FTUS43 KDTX 240824 AAA
TAFPTK
TAF AMD
KPTK 240824Z 2408/2506 23010KT P6SM SCT018 OVC090
     FM241100 20010KT P6SM -RA BKN008 OVC018
     FM241700 21016G27KT P6SM BKN025 OVC040
     FM250100 22014G20KT 6SM -RA BR BKN008 OVC014=

USA.gov is the U.S. government's official web portal to all federal, state and local government web resources and services.